NCAR-RAP Real-Time Weather Data

Output produced by METARs form (08 May 2021  16:33 UTC)
found at http://weather.rap.ucar.edu/surface/
 
KMGM 081553Z VRB04KT 10SM CLR 23/07 A3017 RMK AO2 SLP216 T02280072 $
KMGM 081453Z 18005KT 10SM CLR 21/08 A3018 RMK AO2 SLP218 T02060078 51008 $
KMGM 081353Z 16004KT 10SM CLR 18/09 A3018 RMK AO2 SLP216 T01780094 $
KMGM 081253Z 00000KT 10SM CLR 14/09 A3017 RMK AO2 SLP216 T01440094 $
KMGM 081153Z 00000KT 10SM CLR 12/09 A3016 RMK AO2 SLP210 T01220094 10122 20089 53018 $
KMGM 081053Z 00000KT 10SM CLR 09/08 A3012 RMK AO2 SLP198 T00940078 $
KMGM 080953Z AUTO 00000KT 10SM CLR 09/08 A3012 RMK AO2 SLP197 T00940078 $
KMGM 080853Z AUTO 07003KT 10SM CLR 11/08 A3010 RMK AO2 SLP192 T01110083 56008 $
KMGM 080753Z AUTO 00000KT 10SM CLR 11/08 A3010 RMK AO2 SLP192 T01060083
KMGM 080653Z AUTO 00000KT 10SM CLR 12/08 A3011 RMK AO2 SLP196 T01170083
KMGM 080553Z AUTO 20003KT 10SM CLR 11/08 A3013 RMK AO2 SLP201 T01060083 10211 20106 402440100 50006
KMGM 080453Z AUTO 00000KT 10SM CLR 11/09 A3013 RMK AO2 SLP202 T01110089
KMGM 080353Z AUTO 22003KT 10SM CLR 11/09 A3012 RMK AO2 SLP196 T01110089
KMGM 080253Z 00000KT 10SM CLR 12/09 A3011 RMK AO2 SLP195 T01170089 53008
KMGM 080153Z 00000KT 10SM CLR 17/06 A3011 RMK AO2 SLP193 T01670061
KMGM 080053Z 35003KT 10SM CLR 18/06 A3009 RMK AO2 SLP186 T01830061
KMGM 072353Z 33005KT 10SM CLR 21/04 A3009 RMK AO2 SLP187 T02110044 10244 20211 58001
KMGM 072253Z 32010KT 10SM CLR 23/03 A3009 RMK AO2 SLP188 T02280033
KMGM 072153Z 31010KT 10SM CLR 23/03 A3009 RMK AO2 SLP188 T02330033
KMGM 072053Z 33012G18KT 10SM CLR 24/04 A3009 RMK AO2 SLP188 T02390044 56018
KMGM 071953Z 32011G17KT 10SM CLR 23/06 A3011 RMK AO2 SLP193 T02330056
KMGM 071853Z 30013KT 10SM CLR 23/06 A3013 RMK AO2 SLP200 T02330056
KMGM 071753Z 29005G19KT 10SM CLR 22/07 A3015 RMK AO2 SLP207 T02220072 10228 20133 58010
KMGM 071653Z 34013G18KT 10SM CLR 22/08 A3018 RMK AO2 SLP218 T02220083
KMGM 071553Z 35011G16KT 10SM CLR 21/09 A3019 RMK AO2 SLP220 T02110089
KMGM 071453Z 34010KT 10SM CLR 20/09 A3018 RMK AO2 SLP216 T02000089 51020
KMGM 071353Z 01008KT 10SM CLR 18/09 A3016 RMK AO2 SLP211 T01780089
KMGM 071253Z 35004KT 10SM CLR 16/11 A3014 RMK AO2 SLP205 T01560106
KMGM 071153Z 28004KT 10SM CLR 13/11 A3012 RMK AO2 SLP196 T01330106 10139 20100 53015
KMGM 071053Z 32003KT 10SM CLR 11/09 A3010 RMK AO2 SLP191 T01110094
KMGM 070953Z AUTO 26003KT 10SM CLR 11/09 A3008 RMK AO2 SLP184 T01110094
KMGM 070853Z AUTO 00000KT 10SM CLR 12/10 A3007 RMK AO2 SLP182 T01170100 55001
KMGM 070753Z AUTO 33004KT 10SM CLR 12/09 A3007 RMK AO2 SLP179 T01220094
KMGM 070653Z AUTO 00000KT 10SM CLR 13/10 A3007 RMK AO2 SLP181 T01330100
KMGM 070553Z AUTO 23004KT 10SM FEW095 13/10 A3008 RMK AO2 SLP183 T01330100 10222 20128 402500128 58006
KMGM 070353Z AUTO 34005KT 10SM SCT100 18/09 A3010 RMK AO2 SLP192 T01780089
KMGM 070253Z 28005KT 10SM CLR 17/09 A3009 RMK AO2 SLP189 T01670094 53020
KMGM 070153Z 26006KT 10SM CLR 17/09 A3006 RMK AO2 SLP179 T01720094
KMGM 070053Z 26006KT 10SM CLR 18/09 A3005 RMK AO2 SLP173 T01830094
KMGM 062353Z 28006KT 10SM CLR 22/08 A3004 RMK AO2 SLP169 T02220083 10250 20222 56004
KMGM 062253Z 30009KT 10SM CLR 24/08 A3004 RMK AO2 SLP169 T02440078
KMGM 062153Z 29009KT 10SM CLR 25/08 A3004 RMK AO2 SLP171 T02500078
KMGM 062053Z 27008KT 240V310 10SM CLR 25/09 A3005 RMK AO2 SLP174 T02500089 56020
KMGM 061953Z 32005KT 10SM CLR 25/08 A3006 RMK AO2 SLP179 T02500078
KMGM 061853Z 28006KT 10SM CLR 24/09 A3008 RMK AO2 SLP185 T02390089
KMGM 061753Z 01007KT 10SM CLR 23/09 A3011 RMK AO2 SLP194 T02330094 10233 20156 58015
KMGM 061653Z 36010G14KT 10SM CLR 22/08 A3013 RMK AO2 SLP200 T02220078